Time;durP1;ratioP1;P1;durP2;ratioP2;P2;SDS_P1;SDS_P2;PMS_P1;PMS_P2;Temp;Humidity;BMP_temperature;BMP_pressure;BME280_temperature;BME280_humidity;BME280_pressure;Samples;Min_cycle;Max_cycle;Signal;HPM_P1;HPM_P2
2024/03/30 00:01:51;;;;;;;1.93;1.80;;;11.40;99.90;;;;;;5074309;28;20232;-65
2024/03/30 00:04:18;;;;;;;1.97;1.47;;;11.40;99.90;;;;;;5074278;28;20442;-65
2024/03/30 00:06:44;;;;;;;1.80;1.50;;;11.50;99.90;;;;;;5074285;28;20199;-64
2024/03/30 00:09:12;;;;;;;1.53;1.43;;;11.40;99.90;;;;;;5075029;28;20864;-64
2024/03/30 00:11:38;;;;;;;1.57;1.30;;;11.50;99.90;;;;;;5074468;28;20231;-64
2024/03/30 00:14:04;;;;;;;1.83;1.50;;;11.50;99.90;;;;;;5074754;28;20428;-64
2024/03/30 00:16:30;;;;;;;1.67;1.57;;;11.50;99.90;;;;;;5076675;28;20828;-63
2024/03/30 00:18:59;;;;;;;1.87;1.50;;;11.50;99.90;;;;;;5081345;28;20448;-65
2024/03/30 00:21:25;;;;;;;3.20;1.50;;;11.50;99.90;;;;;;5081476;28;20203;-65
2024/03/30 00:23:52;;;;;;;1.43;1.30;;;11.50;99.90;;;;;;5075966;28;20444;-65
2024/03/30 00:26:19;;;;;;;1.50;1.30;;;11.50;99.90;;;;;;5076656;28;20213;-64
2024/03/30 00:28:45;;;;;;;3.50;1.60;;;11.50;99.90;;;;;;5076792;28;20450;-64
2024/03/30 00:31:11;;;;;;;1.40;1.30;;;11.50;99.90;;;;;;5080135;28;20465;-64
2024/03/30 00:33:38;;;;;;;2.70;1.30;;;11.50;99.90;;;;;;5079563;28;20476;-64
2024/03/30 00:36:04;;;;;;;2.77;2.10;;;11.50;99.90;;;;;;5078680;28;20198;-65
2024/03/30 00:38:31;;;;;;;2.00;1.80;;;11.40;99.90;;;;;;5078645;28;20488;-63
2024/03/30 00:40:56;;;;;;;1.77;1.43;;;11.50;99.90;;;;;;5079431;28;20976;-64
2024/03/30 00:43:24;;;;;;;1.40;1.30;;;11.40;99.90;;;;;;5080438;28;20483;-65
2024/03/30 00:45:50;;;;;;;2.17;1.80;;;11.40;99.90;;;;;;5079986;28;20571;-65
2024/03/30 00:48:17;;;;;;;1.83;1.73;;;11.40;99.90;;;;;;5080538;28;20440;-64
2024/03/30 00:50:43;;;;;;;1.90;1.70;;;11.40;99.90;;;;;;5085683;28;20199;-64
2024/03/30 00:53:10;;;;;;;2.83;1.50;;;11.40;99.90;;;;;;5083051;28;20472;-63
2024/03/30 00:55:36;;;;;;;1.53;1.43;;;11.40;99.90;;;;;;5084290;28;20451;-63
2024/03/30 00:58:02;;;;;;;1.70;1.60;;;11.30;99.90;;;;;;5083624;28;20469;-65
2024/03/30 01:00:30;;;;;;;1.60;1.50;;;11.30;99.90;;;;;;5082892;28;20592;-64
2024/03/30 01:02:56;;;;;;;3.13;2.23;;;11.30;99.90;;;;;;5082090;28;20459;-65
2024/03/30 01:05:22;;;;;;;1.60;1.50;;;11.30;99.90;;;;;;5080708;28;20939;-65
2024/03/30 01:07:49;;;;;;;2.53;1.90;;;11.20;99.90;;;;;;5078325;28;20475;-64
2024/03/30 01:10:15;;;;;;;2.00;1.70;;;11.30;99.90;;;;;;5078038;28;20207;-65
2024/03/30 01:12:44;;;;;;;2.03;1.80;;;11.20;99.90;;;;;;5077869;28;20485;-65
2024/03/30 01:15:10;;;;;;;2.07;1.80;;;11.20;99.90;;;;;;5078820;28;20450;-65
2024/03/30 01:17:39;;;;;;;2.00;1.80;;;11.20;99.90;;;;;;5080581;28;20480;-65
2024/03/30 01:20:06;;;;;;;2.47;1.73;;;11.20;99.90;;;;;;5080537;28;20443;-64
2024/03/30 01:22:33;;;;;;;2.17;1.97;;;11.20;99.90;;;;;;5078838;28;20541;-64
2024/03/30 01:25:00;;;;;;;2.10;1.63;;;11.20;99.90;;;;;;5077818;28;20445;-65
2024/03/30 01:27:28;;;;;;;2.10;2.00;;;11.20;99.90;;;;;;5077947;28;20529;-64
2024/03/30 01:29:57;;;;;;;2.63;2.27;;;11.20;99.90;;;;;;5082396;28;20452;-64
2024/03/30 01:32:25;;;;;;;2.00;1.80;;;11.10;99.90;;;;;;5080338;28;20976;-64
2024/03/30 01:34:52;;;;;;;2.67;2.47;;;11.10;99.90;;;;;;5080561;28;20465;-64
2024/03/30 01:37:19;;;;;;;2.37;2.17;;;11.10;99.90;;;;;;5079835;28;20900;-63
2024/03/30 01:39:46;;;;;;;2.33;2.10;;;11.10;99.90;;;;;;5078356;28;20456;-64
2024/03/30 01:42:12;;;;;;;2.30;2.10;;;11.00;99.90;;;;;;5078457;28;20499;-64
2024/03/30 01:44:38;;;;;;;5.60;2.53;;;10.90;99.90;;;;;;5079318;28;20450;-64
2024/03/30 01:47:05;;;;;;;2.30;2.00;;;10.90;99.90;;;;;;5079279;28;20442;-64
2024/03/30 01:49:31;;;;;;;2.57;2.20;;;10.80;99.90;;;;;;5078697;28;20806;-64
2024/03/30 01:52:03;;;;;;;2.30;2.13;;;10.70;99.90;;;;;;5077749;28;20460;-63
2024/03/30 01:54:30;;;;;;;2.50;2.10;;;10.70;99.90;;;;;;5077895;28;20956;-64
2024/03/30 01:56:58;;;;;;;2.70;2.50;;;10.60;99.90;;;;;;5078495;28;20476;-64
2024/03/30 01:59:24;;;;;;;3.03;2.73;;;10.60;99.90;;;;;;5077090;28;20443;-64
2024/03/30 02:01:53;;;;;;;2.70;2.50;;;10.50;99.90;;;;;;5078080;28;20467;-64
2024/03/30 02:04:20;;;;;;;3.20;2.90;;;10.50;99.90;;;;;;5080304;28;20443;-64
2024/03/30 02:06:48;;;;;;;2.70;2.50;;;10.50;99.90;;;;;;5080670;28;20450;-65
2024/03/30 02:09:17;;;;;;;2.67;2.47;;;10.50;99.90;;;;;;5081403;28;20439;-64
2024/03/30 02:11:44;;;;;;;2.47;2.27;;;10.40;99.90;;;;;;5081476;28;20480;-64
2024/03/30 02:14:10;;;;;;;2.90;2.70;;;10.50;99.90;;;;;;5080788;28;20937;-64
2024/03/30 02:16:38;;;;;;;2.77;2.10;;;10.40;99.90;;;;;;5081207;28;20443;-63
2024/03/30 02:19:04;;;;;;;3.50;2.27;;;10.40;99.90;;;;;;5077709;28;20427;-64
2024/03/30 02:21:31;;;;;;;4.47;4.03;;;10.40;99.90;;;;;;5076789;28;20439;-64
2024/03/30 02:23:58;;;;;;;4.33;2.83;;;10.30;99.90;;;;;;5076884;28;20450;-64
2024/03/30 02:26:25;;;;;;;3.00;2.70;;;10.30;99.90;;;;;;5076601;28;20447;-64
2024/03/30 02:28:52;;;;;;;2.53;2.23;;;10.30;99.90;;;;;;5078956;28;20434;-64
2024/03/30 02:31:19;;;;;;;2.70;2.50;;;10.30;99.90;;;;;;5078234;28;20443;-64
2024/03/30 02:33:46;;;;;;;2.80;2.60;;;10.30;99.90;;;;;;5078114;28;20442;-64
2024/03/30 02:36:13;;;;;;;1.87;1.77;;;10.20;99.90;;;;;;5082852;28;20444;-65
2024/03/30 02:38:39;;;;;;;3.00;2.60;;;10.20;99.90;;;;;;5087691;28;20485;-65
2024/03/30 02:41:07;;;;;;;2.63;2.43;;;10.10;99.90;;;;;;5085739;28;20992;-64
2024/03/30 02:43:33;;;;;;;2.43;2.23;;;10.10;99.90;;;;;;5084153;28;20220;-63
2024/03/30 02:46:01;;;;;;;2.50;2.30;;;10.10;99.90;;;;;;5082087;28;21025;-63
2024/03/30 02:48:26;;;;;;;3.00;2.70;;;10.10;99.90;;;;;;5079855;28;20574;-65
2024/03/30 02:50:53;;;;;;;3.33;2.90;;;10.00;99.90;;;;;;5078749;28;20452;-64
2024/03/30 02:53:19;;;;;;;2.60;2.40;;;10.00;99.90;;;;;;5077417;28;20247;-64
2024/03/30 02:55:45;;;;;;;3.90;2.50;;;10.00;99.90;;;;;;5078574;28;20805;-65
2024/03/30 02:58:13;;;;;;;2.87;2.57;;;10.00;99.90;;;;;;5077780;28;20220;-64
2024/03/30 03:00:45;;;;;;;3.77;2.83;;;10.00;99.90;;;;;;5077914;28;20822;-64
2024/03/30 03:03:11;;;;;;;3.27;2.90;;;9.90;99.90;;;;;;5079353;28;20567;-64
2024/03/30 03:05:38;;;;;;;2.70;2.50;;;9.90;99.90;;;;;;5078625;28;20443;-65
2024/03/30 03:08:04;;;;;;;5.00;3.03;;;9.90;99.90;;;;;;5080507;28;20203;-65
2024/03/30 03:10:31;;;;;;;2.70;2.50;;;9.90;99.90;;;;;;5083063;28;20446;-64
2024/03/30 03:12:56;;;;;;;3.57;2.57;;;9.90;99.90;;;;;;5082124;28;20532;-65
2024/03/30 03:15:25;;;;;;;3.43;3.13;;;9.90;99.90;;;;;;5084250;28;20442;-64
2024/03/30 03:17:50;;;;;;;3.17;2.77;;;9.90;99.90;;;;;;5084361;28;20224;-64
2024/03/30 03:20:17;;;;;;;2.63;2.43;;;9.80;99.90;;;;;;5085107;28;20453;-64
2024/03/30 03:22:44;;;;;;;3.60;2.87;;;9.90;99.90;;;;;;5086668;28;20221;-64
2024/03/30 03:25:10;;;;;;;3.40;3.10;;;9.90;99.90;;;;;;5085687;28;20469;-63
2024/03/30 03:27:36;;;;;;;3.73;3.10;;;9.80;99.90;;;;;;5085586;28;20453;-64
2024/03/30 03:30:03;;;;;;;2.60;2.40;;;9.80;99.90;;;;;;5084476;28;21017;-65
2024/03/30 03:32:31;;;;;;;3.63;3.30;;;9.90;99.90;;;;;;5084442;28;20296;-64
2024/03/30 03:34:58;;;;;;;2.77;2.50;;;9.80;99.90;;;;;;5084679;28;20446;-64
2024/03/30 03:37:23;;;;;;;5.30;2.60;;;9.80;99.90;;;;;;5086434;28;20487;-63
2024/03/30 03:39:50;;;;;;;2.70;2.27;;;9.80;99.90;;;;;;5085239;28;20530;-64
2024/03/30 03:42:17;;;;;;;3.80;3.20;;;9.80;99.90;;;;;;5086287;28;20221;-65
2024/03/30 03:44:44;;;;;;;3.10;2.80;;;9.80;99.90;;;;;;5085465;28;20453;-64
2024/03/30 03:47:10;;;;;;;2.73;2.53;;;9.80;99.90;;;;;;5085004;28;20435;-64
2024/03/30 03:49:38;;;;;;;2.80;2.47;;;9.80;99.90;;;;;;5083853;28;20445;-64
2024/03/30 03:52:04;;;;;;;2.70;2.50;;;9.80;99.90;;;;;;5079848;28;20324;-64
2024/03/30 03:54:30;;;;;;;2.57;2.37;;;9.80;99.90;;;;;;5080779;28;20443;-64
2024/03/30 03:56:56;;;;;;;2.13;2.03;;;9.80;99.90;;;;;;5078047;28;20944;-65
2024/03/30 03:59:23;;;;;;;2.90;2.50;;;9.80;99.90;;;;;;5077700;28;20479;-64
2024/03/30 04:01:49;;;;;;;2.57;2.37;;;9.80;99.90;;;;;;5077329;28;20235;-64
2024/03/30 04:04:16;;;;;;;2.90;2.60;;;9.80;99.90;;;;;;5075446;28;20444;-65
2024/03/30 04:06:43;;;;;;;2.37;2.13;;;9.80;99.90;;;;;;5075705;28;20211;-64
2024/03/30 04:09:10;;;;;;;2.17;2.07;;;9.70;99.90;;;;;;5074139;28;20439;-65
2024/03/30 04:13:27;;;;;;;2.60;2.40;;;9.70;99.90;;;;;;5091969;27;20559;-64
2024/03/30 04:15:52;;;;;;;2.47;2.27;;;9.70;99.90;;;;;;5091563;28;20584;-64
2024/03/30 04:18:19;;;;;;;2.43;2.23;;;9.70;99.90;;;;;;5091847;28;20945;-65
2024/03/30 04:20:55;;;;;;;2.90;2.67;;;9.70;99.90;;;;;;5091728;28;20436;-65
2024/03/30 04:23:22;;;;;;;2.50;2.30;;;9.70;99.90;;;;;;5091839;28;20870;-64
2024/03/30 04:25:58;;;;;;;4.27;2.60;;;9.70;99.90;;;;;;5092322;28;20446;-64
2024/03/30 04:28:26;;;;;;;2.57;2.37;;;9.70;99.90;;;;;;5090980;28;20916;-64
2024/03/30 04:30:54;;;;;;;2.40;2.20;;;9.60;99.90;;;;;;5090755;28;20819;-64
2024/03/30 04:33:21;;;;;;;2.65;2.45;;;9.60;99.90;;;;;;5090488;28;20481;-64
2024/03/30 04:35:54;;;;;;;2.70;2.30;;;9.60;99.90;;;;;;5091442;28;20200;-64
2024/03/30 04:38:21;;;;;;;2.60;2.40;;;9.60;99.90;;;;;;5091192;28;20438;-64
2024/03/30 04:40:57;;;;;;;2.87;2.33;;;9.60;99.90;;;;;;5091632;28;20442;-65
2024/03/30 04:43:23;;;;;;;2.53;2.33;;;9.60;99.90;;;;;;5091443;28;20550;-64
2024/03/30 04:45:51;;;;;;;2.10;1.97;;;9.60;99.90;;;;;;5090987;28;20525;-64
2024/03/30 04:48:18;;;;;;;4.40;1.80;;;9.60;99.90;;;;;;5090937;28;20447;-63
2024/03/30 04:50:45;;;;;;;3.50;2.27;;;9.60;99.90;;;;;;5091545;28;20787;-64
2024/03/30 04:53:15;;;;;;;2.10;1.90;;;9.70;99.90;;;;;;5092663;28;20553;-63
2024/03/30 04:55:42;;;;;;;3.07;2.23;;;9.70;99.90;;;;;;5096829;28;20516;-64
2024/03/30 04:58:07;;;;;;;2.30;2.10;;;9.70;99.90;;;;;;5098836;28;20503;-65
2024/03/30 05:00:34;;;;;;;2.70;2.10;;;9.70;99.90;;;;;;5099503;28;20438;-63
2024/03/30 05:03:02;;;;;;;2.80;2.37;;;9.70;99.90;;;;;;5094772;28;20221;-65
2024/03/30 05:05:28;;;;;;;2.60;2.40;;;9.70;99.90;;;;;;5093229;28;20450;-64
2024/03/30 05:07:54;;;;;;;2.97;2.67;;;9.70;99.90;;;;;;5093301;28;20533;-64
2024/03/30 05:10:21;;;;;;;2.60;2.40;;;9.70;99.90;;;;;;5092848;28;20477;-65
2024/03/30 05:12:46;;;;;;;2.73;2.50;;;9.70;99.90;;;;;;5091100;28;20240;-64
2024/03/30 05:15:13;;;;;;;2.60;2.33;;;9.70;99.90;;;;;;5091215;28;20936;-64
2024/03/30 05:17:39;;;;;;;3.03;2.70;;;9.70;99.90;;;;;;5091350;28;20690;-64
2024/03/30 05:22:52;;;;;;;3.60;3.30;;;9.70;99.90;;;;;;5088620;28;20340;-62
2024/03/30 05:25:19;;;;;;;3.40;3.10;;;9.80;99.90;;;;;;5078475;28;20436;-64
2024/03/30 05:27:45;;;;;;;2.93;2.67;;;9.80;99.90;;;;;;5078184;28;20466;-65
2024/03/30 05:30:13;;;;;;;3.47;3.17;;;9.80;99.90;;;;;;5076983;28;20953;-64
2024/03/30 05:32:38;;;;;;;3.35;3.15;;;9.80;99.90;;;;;;5077645;28;20220;-64
2024/03/30 05:35:08;;;;;;;5.13;2.70;;;9.80;99.90;;;;;;5076615;28;20315;-64
2024/03/30 05:37:34;;;;;;;3.77;3.20;;;9.80;99.90;;;;;;5076266;28;20213;-64
2024/03/30 05:40:00;;;;;;;3.10;2.90;;;9.80;99.90;;;;;;5076483;28;20440;-63
2024/03/30 05:42:26;;;;;;;3.73;3.00;;;9.80;99.90;;;;;;5078308;28;20217;-65
2024/03/30 05:44:53;;;;;;;2.90;2.70;;;9.80;99.90;;;;;;5078234;28;20451;-64
2024/03/30 05:47:19;;;;;;;3.07;2.83;;;9.90;99.90;;;;;;5078132;28;20643;-63
2024/03/30 05:49:45;;;;;;;3.13;2.73;;;9.90;99.90;;;;;;5079509;28;20526;-64
2024/03/30 05:52:13;;;;;;;3.20;2.90;;;10.00;99.90;;;;;;5078609;28;20236;-63
2024/03/30 05:54:39;;;;;;;3.60;2.67;;;10.00;99.90;;;;;;5078811;28;20947;-64
2024/03/30 05:57:05;;;;;;;2.83;2.50;;;10.10;99.90;;;;;;5080026;28;20439;-63
2024/03/30 05:59:32;;;;;;;3.03;2.73;;;10.20;99.90;;;;;;5081578;28;20443;-64
2024/03/30 06:01:58;;;;;;;3.20;2.90;;;10.30;99.90;;;;;;5080876;28;20280;-63
2024/03/30 06:04:25;;;;;;;6.67;2.97;;;10.40;99.90;;;;;;5081624;28;20485;-64
2024/03/30 06:06:51;;;;;;;4.07;3.10;;;10.50;99.90;;;;;;5080994;28;20213;-64
2024/03/30 06:09:19;;;;;;;4.00;3.07;;;10.60;99.90;;;;;;5080448;28;20943;-62
2024/03/30 06:11:45;;;;;;;3.43;3.10;;;10.70;99.90;;;;;;5079266;28;20231;-64
2024/03/30 06:14:11;;;;;;;3.30;3.00;;;10.70;99.90;;;;;;5078476;28;20539;-64
2024/03/30 06:16:38;;;;;;;3.40;3.10;;;10.80;99.90;;;;;;5077235;28;20211;-63
2024/03/30 06:19:05;;;;;;;4.90;2.90;;;10.90;99.90;;;;;;5076200;28;20448;-64
2024/03/30 06:21:30;;;;;;;3.70;3.00;;;10.90;99.90;;;;;;5075969;28;20453;-64
2024/03/30 06:23:57;;;;;;;5.73;3.60;;;10.90;99.90;;;;;;5075637;28;20453;-63
2024/03/30 06:26:24;;;;;;;4.80;3.27;;;11.00;99.90;;;;;;5075616;28;20207;-63
2024/03/30 06:28:51;;;;;;;5.10;3.60;;;11.00;99.90;;;;;;5076123;28;20444;-64
2024/03/30 06:31:17;;;;;;;3.33;3.10;;;11.10;99.90;;;;;;5076177;28;20815;-64
2024/03/30 06:33:45;;;;;;;3.63;3.07;;;11.10;99.90;;;;;;5078530;28;20480;-63
2024/03/30 06:36:11;;;;;;;5.30;3.57;;;11.10;99.90;;;;;;5077979;28;20213;-64
2024/03/30 06:38:37;;;;;;;3.30;3.03;;;11.10;99.90;;;;;;5076797;28;20469;-64
2024/03/30 06:44:02;;;;;;;3.70;3.40;;;11.20;99.90;;;;;;5014762;28;20519;-63
2024/03/30 06:46:28;;;;;;;3.27;3.00;;;11.30;99.90;;;;;;5061539;28;20933;-63
2024/03/30 06:48:55;;;;;;;3.07;2.70;;;11.30;99.90;;;;;;5074967;28;20441;-63
2024/03/30 06:51:22;;;;;;;3.20;3.00;;;11.40;99.90;;;;;;5075267;28;20435;-63
2024/03/30 06:53:49;;;;;;;4.60;3.30;;;11.40;99.90;;;;;;5075233;28;21040;-64
2024/03/30 06:56:14;;;;;;;3.30;3.00;;;11.40;99.90;;;;;;5075419;28;20458;-64
2024/03/30 06:58:41;;;;;;;4.03;2.80;;;11.50;99.90;;;;;;5075611;28;20443;-62
2024/03/30 07:01:09;;;;;;;3.13;2.50;;;11.50;99.90;;;;;;5075546;28;20211;-64
2024/03/30 07:03:35;;;;;;;2.80;2.60;;;11.60;99.90;;;;;;5075787;28;20550;-65
2024/03/30 07:06:01;;;;;;;3.03;2.40;;;11.70;99.90;;;;;;5075418;28;20438;-63
2024/03/30 07:08:28;;;;;;;2.80;2.40;;;11.80;99.90;;;;;;5075740;28;20464;-65
2024/03/30 07:10:54;;;;;;;4.40;2.60;;;11.90;99.90;;;;;;5075773;28;20239;-63
2024/03/30 07:13:20;;;;;;;3.07;2.77;;;12.00;99.90;;;;;;5080158;28;20479;-64
2024/03/30 07:15:47;;;;;;;2.53;2.33;;;12.10;99.90;;;;;;5083280;28;20205;-64
2024/03/30 07:18:17;;;;;;;2.67;2.47;;;12.20;99.90;;;;;;5079899;28;21018;-64
2024/03/30 07:20:43;;;;;;;3.30;2.73;;;12.30;99.90;;;;;;5076928;28;20466;-64
2024/03/30 07:23:10;;;;;;;3.40;2.40;;;12.30;99.90;;;;;;5075522;28;20799;-64
2024/03/30 07:25:36;;;;;;;3.40;2.10;;;12.40;99.90;;;;;;5075599;28;20438;-64
2024/03/30 07:28:04;;;;;;;2.17;1.70;;;12.50;99.90;;;;;;5075151;28;20499;-64
2024/03/30 07:30:29;;;;;;;2.53;2.33;;;12.60;99.90;;;;;;5075638;28;20439;-64
2024/03/30 07:32:56;;;;;;;3.23;2.43;;;12.60;99.90;;;;;;5074622;28;20479;-63
2024/03/30 07:35:23;;;;;;;2.63;2.43;;;12.60;99.90;;;;;;5077973;28;20200;-64
2024/03/30 07:37:50;;;;;;;2.20;2.00;;;12.70;99.90;;;;;;5076118;28;20443;-64
2024/03/30 07:40:16;;;;;;;1.90;1.80;;;12.70;99.90;;;;;;5075381;28;20446;-64
2024/03/30 07:42:42;;;;;;;2.17;1.90;;;12.80;99.90;;;;;;5075779;28;20447;-64
2024/03/30 07:45:08;;;;;;;2.23;2.03;;;12.80;99.90;;;;;;5075400;28;20204;-63
2024/03/30 07:47:37;;;;;;;2.30;1.80;;;12.90;99.90;;;;;;5074782;28;20815;-64
2024/03/30 07:50:03;;;;;;;2.00;1.63;;;12.90;99.90;;;;;;5075610;28;20201;-64
2024/03/30 07:52:32;;;;;;;2.87;2.43;;;13.10;99.90;;;;;;5075570;28;20506;-65
2024/03/30 07:54:58;;;;;;;2.30;2.10;;;13.20;99.90;;;;;;5075346;28;20439;-64
2024/03/30 07:57:25;;;;;;;2.73;1.60;;;13.30;99.90;;;;;;5078433;28;20445;-64
2024/03/30 07:59:51;;;;;;;3.20;1.97;;;13.50;99.90;;;;;;5079025;28;20257;-64
2024/03/30 08:02:18;;;;;;;2.77;2.07;;;13.60;99.90;;;;;;5078915;28;20460;-63
2024/03/30 08:04:43;;;;;;;2.70;1.60;;;13.80;99.90;;;;;;5076867;28;20443;-64
2024/03/30 08:07:10;;;;;;;6.20;3.90;;;14.00;99.90;;;;;;5077349;28;20505;-64
2024/03/30 08:09:37;;;;;;;3.57;1.80;;;14.20;99.90;;;;;;5078074;28;20197;-64
2024/03/30 08:12:04;;;;;;;1.63;1.40;;;14.40;99.90;;;;;;5076991;28;20482;-64
2024/03/30 08:14:31;;;;;;;4.87;1.67;;;14.60;99.90;;;;;;5076961;28;20443;-65
2024/03/30 08:16:58;;;;;;;2.73;1.67;;;14.70;99.90;;;;;;5078299;28;20451;-64
2024/03/30 08:19:24;;;;;;;5.17;1.43;;;14.70;99.90;;;;;;5078034;28;20442;-64
2024/03/30 08:21:50;;;;;;;2.00;1.20;;;14.80;99.90;;;;;;5077439;28;20923;-63
2024/03/30 08:24:16;;;;;;;2.80;1.33;;;14.90;99.90;;;;;;5077115;28;20446;-65
2024/03/30 08:26:44;;;;;;;2.43;1.53;;;15.10;99.90;;;;;;5077169;28;20439;-64
2024/03/30 08:29:10;;;;;;;7.70;1.77;;;15.20;99.90;;;;;;5075723;28;20674;-65
2024/03/30 08:31:37;;;;;;;2.27;1.30;;;15.20;99.90;;;;;;5075230;28;20439;-66
2024/03/30 08:34:02;;;;;;;3.80;1.80;;;15.20;99.90;;;;;;5075427;28;20225;-64
2024/03/30 08:36:29;;;;;;;3.67;2.10;;;15.40;99.90;;;;;;5074617;28;20955;-66
2024/03/30 08:38:55;;;;;;;2.70;1.47;;;15.50;99.90;;;;;;5075705;28;20447;-66
2024/03/30 08:41:22;;;;;;;5.23;1.37;;;15.60;99.90;;;;;;5074094;28;20435;-64
2024/03/30 08:43:49;;;;;;;4.83;1.50;;;15.70;99.90;;;;;;5075202;28;20563;-65
2024/03/30 08:46:15;;;;;;;3.40;1.50;;;15.80;99.90;;;;;;5074429;28;20443;-64
2024/03/30 08:48:41;;;;;;;2.63;1.60;;;15.90;99.90;;;;;;5074773;28;20439;-64
2024/03/30 08:51:08;;;;;;;3.97;1.80;;;16.00;99.90;;;;;;5074627;28;20992;-64
2024/03/30 08:53:34;;;;;;;5.80;1.57;;;16.10;99.90;;;;;;5074145;28;20619;-64
2024/03/30 08:56:03;;;;;;;3.97;2.27;;;16.30;99.90;;;;;;5074233;28;20447;-64
2024/03/30 08:58:30;;;;;;;3.70;1.80;;;16.40;99.90;;;;;;5075668;28;20627;-65
2024/03/30 09:00:58;;;;;;;4.53;1.87;;;16.50;99.90;;;;;;5077785;28;20835;-63
2024/03/30 09:03:24;;;;;;;4.40;2.03;;;16.60;99.90;;;;;;5078334;28;20466;-64
2024/03/30 09:05:51;;;;;;;5.70;2.10;;;16.80;99.90;;;;;;5077548;28;20465;-64
2024/03/30 09:08:17;;;;;;;5.10;1.80;;;17.10;99.90;;;;;;5077468;28;20254;-65
2024/03/30 09:10:44;;;;;;;6.43;1.83;;;17.30;98.80;;;;;;5077959;28;20443;-66
2024/03/30 09:13:10;;;;;;;9.07;2.10;;;17.60;97.30;;;;;;5078948;28;20228;-63
2024/03/30 09:15:36;;;;;;;6.27;2.47;;;17.80;95.90;;;;;;5079619;28;20534;-64
2024/03/30 09:18:04;;;;;;;3.67;2.00;;;18.10;94.40;;;;;;5080469;28;20209;-65
2024/03/30 09:20:31;;;;;;;7.10;2.27;;;18.30;92.50;;;;;;5077958;28;20504;-64
2024/03/30 09:22:57;;;;;;;5.17;1.90;;;18.50;90.50;;;;;;5077721;28;20987;-64
2024/03/30 09:25:23;;;;;;;16.40;2.27;;;18.60;88.80;;;;;;5077130;28;20427;-65
2024/03/30 09:27:49;;;;;;;9.37;2.30;;;18.70;86.40;;;;;;5077414;28;20209;-65
2024/03/30 09:30:16;;;;;;;9.70;2.60;;;18.70;84.60;;;;;;5078967;28;20443;-64
2024/03/30 09:32:44;;;;;;;5.40;2.10;;;18.70;83.40;;;;;;5082388;28;20217;-63
2024/03/30 09:35:12;;;;;;;7.60;2.77;;;18.80;82.30;;;;;;5082079;28;20534;-64
2024/03/30 09:37:38;;;;;;;8.87;2.30;;;18.80;81.30;;;;;;5080503;28;20439;-64
2024/03/30 09:40:06;;;;;;;17.37;2.93;;;18.80;80.00;;;;;;5079569;28;20530;-64
2024/03/30 09:42:33;;;;;;;12.43;2.77;;;18.80;79.00;;;;;;5078684;28;20998;-65
2024/03/30 09:45:00;;;;;;;11.70;2.93;;;18.90;78.00;;;;;;5078163;28;20439;-64
2024/03/30 09:47:28;;;;;;;10.63;3.20;;;19.00;77.20;;;;;;5078688;28;20446;-64
2024/03/30 09:49:57;;;;;;;8.30;2.43;;;19.10;76.30;;;;;;5077528;28;20898;-64
2024/03/30 09:52:25;;;;;;;11.27;3.13;;;19.30;75.20;;;;;;5077664;28;20467;-64
2024/03/30 09:54:56;;;;;;;12.47;3.27;;;19.60;74.20;;;;;;5076806;28;20440;-64
2024/03/30 09:57:23;;;;;;;12.90;2.90;;;19.80;73.00;;;;;;5077157;28;20427;-64
2024/03/30 09:59:50;;;;;;;10.63;3.00;;;20.00;71.70;;;;;;5077359;28;20435;-65
2024/03/30 10:02:16;;;;;;;14.23;3.10;;;20.20;70.80;;;;;;5076894;28;20467;-64
2024/03/30 10:04:43;;;;;;;16.50;3.73;;;20.30;70.00;;;;;;5077165;28;20461;-65
2024/03/30 10:07:12;;;;;;;7.60;2.80;;;20.40;69.00;;;;;;5077469;28;20471;-65
2024/03/30 10:09:40;;;;;;;13.47;3.23;;;20.50;68.20;;;;;;5078092;28;20439;-64
2024/03/30 10:12:12;;;;;;;9.27;3.23;;;20.50;67.70;;;;;;5077257;28;20475;-63
2024/03/30 10:14:44;;;;;;;10.77;3.00;;;20.50;67.10;;;;;;5078968;28;20423;-64
2024/03/30 10:17:11;;;;;;;11.50;2.93;;;20.50;66.70;;;;;;5078049;28;20423;-64
2024/03/30 10:19:39;;;;;;;9.80;2.80;;;20.40;66.20;;;;;;5077748;28;20933;-64
2024/03/30 10:22:06;;;;;;;10.47;3.20;;;20.30;66.20;;;;;;5076321;28;20463;-64
2024/03/30 10:24:34;;;;;;;11.20;2.67;;;20.20;66.20;;;;;;5077910;28;20435;-63
2024/03/30 10:27:01;;;;;;;11.50;3.77;;;20.10;66.00;;;;;;5082642;28;20457;-63
2024/03/30 10:29:28;;;;;;;8.40;3.50;;;20.10;66.00;;;;;;5082963;28;20443;-64
2024/03/30 10:31:54;;;;;;;16.67;3.43;;;20.10;65.70;;;;;;5076960;28;20455;-65
2024/03/30 10:34:21;;;;;;;9.90;2.97;;;20.20;65.40;;;;;;5076541;28;20485;-63
2024/03/30 10:36:48;;;;;;;14.10;2.87;;;20.20;64.60;;;;;;5076650;28;20196;-65
2024/03/30 10:39:15;;;;;;;15.07;3.50;;;20.30;64.30;;;;;;5076668;28;20937;-63
2024/03/30 10:41:41;;;;;;;10.77;3.40;;;20.30;64.40;;;;;;5076180;28;20463;-63
2024/03/30 10:44:09;;;;;;;15.13;4.10;;;20.20;63.40;;;;;;5076439;28;20446;-66
2024/03/30 10:46:36;;;;;;;13.80;3.37;;;20.30;63.20;;;;;;5075818;28;20443;-65
2024/03/30 10:49:03;;;;;;;19.17;3.50;;;20.30;63.00;;;;;;5075739;28;20534;-65
2024/03/30 10:51:29;;;;;;;12.07;3.43;;;20.20;62.70;;;;;;5075480;28;20447;-65
2024/03/30 10:54:05;;;;;;;16.03;4.20;;;20.10;62.50;;;;;;5075670;28;20467;-63
2024/03/30 10:56:31;;;;;;;19.13;3.60;;;20.10;62.60;;;;;;5075980;28;20563;-65
2024/03/30 10:59:00;;;;;;;15.53;3.73;;;20.00;62.60;;;;;;5075323;28;20438;-64
2024/03/30 11:01:29;;;;;;;16.00;2.93;;;19.90;62.70;;;;;;5075864;28;20205;-65
2024/03/30 11:03:57;;;;;;;12.83;2.87;;;19.80;62.80;;;;;;5075350;28;21011;-64
2024/03/30 11:06:24;;;;;;;15.93;3.90;;;19.70;62.80;;;;;;5077407;28;20446;-64
2024/03/30 11:08:53;;;;;;;18.47;3.37;;;19.60;62.60;;;;;;5076966;28;20439;-63
2024/03/30 11:11:19;;;;;;;18.00;3.87;;;19.50;62.70;;;;;;5075679;28;20458;-65
2024/03/30 11:13:46;;;;;;;14.30;2.87;;;19.40;62.90;;;;;;5076848;28;20459;-64
2024/03/30 11:16:13;;;;;;;13.03;3.10;;;19.30;63.00;;;;;;5076623;28;20443;-64
2024/03/30 11:18:50;;;;;;;16.93;3.17;;;19.30;62.90;;;;;;5075665;28;20443;-65
2024/03/30 11:21:25;;;;;;;13.43;3.20;;;19.30;62.90;;;;;;5074695;28;20439;-63
2024/03/30 11:23:57;;;;;;;13.67;3.20;;;19.20;63.00;;;;;;5075771;28;20414;-63
2024/03/30 11:26:23;;;;;;;17.80;3.53;;;19.20;63.10;;;;;;5075941;28;20427;-64
2024/03/30 11:28:58;;;;;;;15.80;3.50;;;19.20;63.10;;;;;;5075782;28;20497;-64
2024/03/30 11:31:31;;;;;;;17.17;4.23;;;19.20;63.20;;;;;;5075072;28;20419;-67
2024/03/30 11:34:04;;;;;;;14.20;3.43;;;19.30;63.30;;;;;;5074519;28;20507;-64
2024/03/30 11:36:37;;;;;;;18.20;3.33;;;19.30;63.40;;;;;;5075152;28;20416;-64
2024/03/30 11:39:15;;;;;;;11.10;3.80;;;19.30;63.30;;;;;;5075542;28;20473;-65
2024/03/30 11:41:45;;;;;;;12.90;3.70;;;19.30;63.20;;;;;;5074588;28;20469;-64
2024/03/30 11:44:13;;;;;;;14.83;3.30;;;19.20;63.10;;;;;;5074559;28;20453;-64
2024/03/30 11:46:41;;;;;;;14.57;3.80;;;19.20;63.20;;;;;;5074906;28;20477;-65
2024/03/30 11:49:10;;;;;;;14.77;3.50;;;19.10;63.20;;;;;;5076523;28;20811;-64
2024/03/30 11:51:39;;;;;;;15.73;4.50;;;19.10;63.40;;;;;;5083340;28;20447;-65
2024/03/30 11:54:20;;;;;;;15.67;3.43;;;19.00;63.50;;;;;;5087827;28;20475;-64
2024/03/30 11:57:02;;;;;;;18.87;4.40;;;18.90;63.50;;;;;;5085668;28;20427;-65
2024/03/30 11:59:38;;;;;;;12.03;3.80;;;18.90;63.50;;;;;;5079042;28;20467;-65
2024/03/30 12:02:06;;;;;;;16.70;3.80;;;18.80;63.40;;;;;;5079802;28;20458;-65
2024/03/30 12:04:38;;;;;;;21.87;4.13;;;18.80;63.40;;;;;;5081377;28;20435;-64
2024/03/30 12:07:06;;;;;;;11.00;3.23;;;18.80;63.70;;;;;;5079035;28;20809;-66
2024/03/30 12:09:33;;;;;;;20.43;4.47;;;18.80;64.10;;;;;;5080115;28;20530;-64
2024/03/30 12:12:17;;;;;;;14.37;3.60;;;18.70;64.50;;;;;;5076562;28;20475;-64
2024/03/30 12:14:47;;;;;;;20.80;4.73;;;18.70;65.40;;;;;;5076198;28;20948;-63
2024/03/30 12:17:13;;;;;;;13.30;4.17;;;18.60;66.40;;;;;;5076912;28;20553;-64
2024/03/30 12:19:42;;;;;;;10.83;3.93;;;18.60;67.40;;;;;;5077170;28;20484;-65
2024/03/30 12:22:08;;;;;;;14.83;4.20;;;18.60;68.70;;;;;;5077102;28;20466;-65
2024/03/30 12:24:35;;;;;;;16.73;4.13;;;18.60;70.00;;;;;;5077429;28;20510;-65
2024/03/30 12:27:01;;;;;;;26.37;14.13;;;18.60;71.10;;;;;;5077514;28;20442;-64
2024/03/30 12:29:28;;;;;;;32.83;16.67;;;18.60;72.10;;;;;;5076998;28;20819;-65
2024/03/30 12:31:55;;;;;;;35.80;18.87;;;18.60;73.10;;;;;;5080036;28;20470;-64
2024/03/30 12:34:22;;;;;;;14.03;6.63;;;18.60;74.10;;;;;;5081648;28;20510;-65
2024/03/30 12:36:50;;;;;;;37.40;16.00;;;18.70;75.20;;;;;;5083346;28;20568;-64
2024/03/30 12:39:18;;;;;;;25.73;5.73;;;18.60;76.00;;;;;;5086749;28;20476;-64
2024/03/30 12:41:43;;;;;;;16.23;8.20;;;18.60;77.00;;;;;;5088756;28;20473;-64
2024/03/30 12:44:10;;;;;;;19.10;5.57;;;18.70;77.80;;;;;;5088637;28;20838;-65
2024/03/30 12:46:36;;;;;;;16.47;4.80;;;18.80;78.30;;;;;;5091221;28;20216;-65
2024/03/30 12:49:04;;;;;;;17.07;5.07;;;18.80;78.50;;;;;;5091425;28;20517;-65
2024/03/30 12:51:30;;;;;;;20.10;4.50;;;18.90;79.00;;;;;;5089636;28;20443;-65
2024/03/30 12:53:58;;;;;;;18.53;4.57;;;19.00;79.00;;;;;;5091821;28;20474;-65